createdAt,value
2022-09-12T03:56:34.519Z,100.00
2022-09-12T03:59:37.959Z,100.00
2022-09-12T04:02:40.477Z,100.00
2022-09-12T04:05:43.252Z,100.00
2022-09-12T04:08:50.510Z,100.00
2022-09-12T04:11:53.256Z,100.00
2022-09-12T04:14:55.756Z,100.00
2022-09-12T04:18:02.405Z,100.00
2022-09-12T04:21:10.917Z,100.00
2022-09-12T04:24:13.909Z,100.00
2022-09-12T04:27:16.463Z,100.00
2022-09-12T04:30:19.308Z,100.00
2022-09-12T04:33:22.175Z,100.00
2022-09-12T04:36:26.353Z,100.00
2022-09-12T04:39:28.881Z,100.00
2022-09-12T04:42:31.676Z,100.00
2022-09-12T04:45:34.117Z,100.00
2022-09-12T04:48:37.582Z,100.00
2022-09-12T04:51:42.225Z,100.00
2022-09-12T04:54:45.068Z,100.00
2022-09-12T04:57:47.823Z,100.00
2022-09-12T05:00:50.577Z,100.00
2022-09-12T05:03:53.660Z,100.00
2022-09-12T05:06:56.540Z,100.00
2022-09-12T05:09:59.110Z,100.00
2022-09-12T05:13:01.836Z,100.00
2022-09-12T05:16:05.855Z,100.00
2022-09-12T05:19:11.404Z,100.00
2022-09-12T05:22:14.236Z,100.00
2022-09-12T05:25:17.154Z,99.53
2022-09-12T05:28:21.311Z,98.67
2022-09-12T05:31:26.291Z,97.00
2022-09-12T05:34:28.760Z,96.22
2022-09-12T05:37:31.433Z,95.65
2022-09-12T05:40:34.644Z,92.91
2022-09-12T05:43:38.374Z,92.02
2022-09-12T05:46:43.415Z,92.00
2022-09-12T05:49:48.056Z,91.36
2022-09-12T05:52:50.605Z,90.84
2022-09-12T05:56:11.720Z,90.99
2022-09-12T05:59:19.308Z,90.27
2022-09-12T06:02:22.172Z,90.04
2022-09-12T06:05:25.317Z,90.36
2022-09-12T06:08:28.341Z,88.66
2022-09-12T06:11:33.378Z,88.58
2022-09-12T06:14:36.324Z,88.94
2022-09-12T06:17:39.137Z,88.40
2022-09-12T06:20:41.840Z,87.84
2022-09-12T06:23:46.236Z,87.43
2022-09-12T06:26:50.183Z,86.68
2022-09-12T06:29:53.035Z,86.51
2022-09-12T06:32:56.919Z,85.48
2022-09-12T06:36:16.038Z,84.52
2022-09-12T06:39:23.635Z,83.98
2022-09-12T06:42:26.580Z,83.64
2022-09-12T06:45:32.554Z,82.75
2022-09-12T06:48:39.609Z,81.73
2022-09-12T06:51:44.860Z,81.58
2022-09-12T06:54:47.845Z,81.65
2022-09-12T06:57:50.498Z,80.77
2022-09-12T07:01:01.290Z,80.41
2022-09-12T07:04:04.365Z,79.56
2022-09-12T07:07:07.084Z,78.58
2022-09-12T07:10:11.929Z,77.18
2022-09-12T07:13:14.766Z,76.94
2022-09-12T07:16:19.923Z,76.87
2022-09-12T07:19:23.164Z,76.21
2022-09-12T07:22:25.633Z,75.10
2022-09-12T07:25:28.624Z,75.05
2022-09-12T07:28:33.629Z,74.57
2022-09-12T07:31:36.499Z,73.20
2022-09-12T07:34:39.081Z,71.09
2022-09-12T07:37:41.879Z,70.04
2022-09-12T07:40:46.508Z,71.08
2022-09-12T07:43:53.614Z,71.51
2022-09-12T07:46:56.130Z,71.66
2022-09-12T07:49:59.216Z,71.40
2022-09-12T07:53:03.117Z,71.37
2022-09-12T07:56:07.781Z,70.36
2022-09-12T07:59:10.312Z,69.33
2022-09-12T08:02:17.518Z,69.46
2022-09-12T08:05:20.901Z,68.86
2022-09-12T08:08:23.806Z,68.46
2022-09-12T08:11:28.829Z,66.37
2022-09-12T08:14:31.476Z,65.92
2022-09-12T08:17:34.470Z,64.43
2022-09-12T08:20:37.146Z,64.20
2022-09-12T08:23:40.213Z,64.03
2022-09-12T08:26:43.264Z,64.86
2022-09-12T08:29:46.165Z,63.71
2022-09-12T08:32:48.717Z,63.81
2022-09-12T08:35:52.304Z,63.54
2022-09-12T08:39:00.034Z,62.83
2022-09-12T08:42:06.194Z,61.62
2022-09-12T08:45:21.857Z,60.36
2022-09-12T08:48:25.181Z,60.20
2022-09-12T08:51:29.383Z,58.36
2022-09-12T08:54:33.152Z,58.95
2022-09-12T08:57:35.711Z,58.18
2022-09-12T09:01:08.721Z,57.21
2022-09-12T09:04:33.030Z,57.17
2022-09-12T09:08:17.332Z,55.33
2022-09-12T09:11:52.685Z,54.95
2022-09-12T09:15:22.005Z,54.28
2022-09-12T09:18:28.804Z,54.14
2022-09-12T09:21:41.324Z,53.29
2022-09-12T09:24:53.435Z,52.46
2022-09-12T09:28:03.837Z,52.83
2022-09-12T09:31:14.439Z,52.74
2022-09-12T09:34:23.385Z,52.29
2022-09-12T09:37:36.757Z,51.11
2022-09-12T09:40:58.100Z,50.14
2022-09-12T09:44:01.236Z,48.96
2022-09-12T09:47:05.349Z,48.60
2022-09-12T09:50:13.958Z,49.54
2022-09-12T09:53:34.209Z,48.57
2022-09-12T09:56:42.572Z,47.34
2022-09-12T09:59:45.341Z,46.63
2022-09-12T10:03:28.812Z,47.30
2022-09-12T10:06:37.977Z,48.36
2022-09-12T10:09:41.447Z,49.73
2022-09-12T10:12:45.087Z,49.81
2022-09-12T10:16:02.915Z,48.49
2022-09-12T10:19:05.851Z,49.54
2022-09-12T10:22:18.218Z,50.17
2022-09-12T10:25:25.038Z,50.81
2022-09-12T10:28:54.064Z,51.07
2022-09-12T10:32:01.125Z,51.06
2022-09-12T10:35:09.045Z,50.85
2022-09-12T10:38:21.374Z,50.91
2022-09-12T10:41:24.724Z,51.22
2022-09-12T10:44:32.890Z,52.09
2022-09-12T10:47:38.004Z,50.51
2022-09-12T10:50:43.448Z,50.11
2022-09-12T10:53:46.883Z,50.43
2022-09-12T10:57:07.050Z,50.02
2022-09-12T11:00:17.790Z,49.33
2022-09-12T11:03:53.485Z,48.51
2022-09-12T11:07:19.928Z,49.48
2022-09-12T11:10:38.042Z,47.29
2022-09-12T11:13:44.958Z,47.13
2022-09-12T11:16:56.537Z,46.95
2022-09-12T11:20:21.626Z,46.89
2022-09-12T11:23:30.664Z,47.84
2022-09-12T11:26:51.673Z,44.53
2022-09-12T11:29:58.572Z,40.33
2022-09-12T11:33:05.746Z,38.87
2022-09-12T11:36:20.775Z,38.08
2022-09-12T11:39:31.236Z,36.10
2022-09-12T11:42:38.910Z,35.32
2022-09-12T11:45:44.611Z,33.59
2022-09-12T11:49:19.540Z,35.75
2022-09-12T11:52:27.152Z,38.70
2022-09-12T11:55:39.606Z,42.56
2022-09-12T11:58:46.597Z,44.55
2022-09-12T12:01:52.538Z,46.90
2022-09-12T12:05:17.749Z,47.86
2022-09-12T12:08:25.961Z,48.94
2022-09-12T12:11:32.246Z,49.64
2022-09-12T12:14:55.831Z,50.68
2022-09-12T12:18:15.289Z,48.75
2022-09-12T12:21:28.472Z,47.81
2022-09-12T12:24:33.858Z,43.58
2022-09-12T12:27:51.198Z,43.16
2022-09-12T12:30:54.098Z,44.13
2022-09-12T12:34:03.327Z,46.02
2022-09-12T12:37:21.221Z,44.53
2022-09-12T12:40:27.688Z,43.72
2022-09-12T12:43:32.260Z,43.32
2022-09-12T12:46:38.274Z,44.36
2022-09-12T12:49:41.712Z,45.36
2022-09-12T12:52:55.304Z,44.43
2022-09-12T12:55:58.224Z,39.78
2022-09-12T12:59:04.434Z,33.43
2022-09-12T13:02:21.106Z,29.99
2022-09-12T13:05:26.953Z,29.83
2022-09-12T13:08:33.533Z,35.09
2022-09-12T13:11:39.223Z,38.89
2022-09-12T13:14:51.811Z,37.55
2022-09-12T13:18:04.357Z,34.78
2022-09-12T13:21:19.818Z,35.28
2022-09-12T13:24:23.709Z,36.21
2022-09-12T13:27:26.606Z,34.01
2022-09-12T13:30:33.066Z,30.37
2022-09-12T13:33:48.193Z,29.77
2022-09-12T13:37:12.192Z,29.66
2022-09-12T13:40:45.568Z,26.73
2022-09-12T13:43:49.340Z,26.71
2022-09-12T13:46:53.246Z,30.56
2022-09-12T13:49:56.857Z,32.42
2022-09-12T13:53:04.305Z,29.84
2022-09-12T13:56:07.105Z,28.42
2022-09-12T13:59:13.375Z,27.06
2022-09-12T14:02:20.269Z,26.64
2022-09-12T14:05:26.295Z,27.14
2022-09-12T14:08:29.801Z,26.92
2022-09-12T14:11:33.929Z,28.44
2022-09-12T14:14:42.123Z,29.59
2022-09-12T14:17:51.870Z,31.10
2022-09-12T14:20:57.487Z,31.85
2022-09-12T14:24:01.347Z,33.39
2022-09-12T14:27:05.090Z,33.91
2022-09-12T14:30:39.352Z,34.44
2022-09-12T14:33:50.832Z,34.78
2022-09-12T14:36:56.263Z,35.04
2022-09-12T14:39:59.013Z,35.64
2022-09-12T14:43:03.059Z,36.24
2022-09-12T14:46:30.821Z,36.62
2022-09-12T14:49:36.673Z,37.44
2022-09-12T14:52:40.132Z,37.80
2022-09-12T14:55:47.409Z,37.44
2022-09-12T14:58:50.529Z,37.28
2022-09-12T15:02:21.490Z,38.25
2022-09-12T15:05:26.563Z,38.32
2022-09-12T15:08:31.273Z,38.56
2022-09-12T15:11:33.914Z,39.04
2022-09-12T15:14:36.784Z,39.11
2022-09-12T15:17:39.375Z,40.22
2022-09-12T15:20:44.619Z,40.55
2022-09-12T15:23:49.451Z,41.07
2022-09-12T15:26:53.724Z,41.31
2022-09-12T15:29:56.429Z,41.65
2022-09-12T15:33:00.146Z,42.07
2022-09-12T15:36:02.829Z,42.77
2022-09-12T15:39:05.980Z,42.73
2022-09-12T15:42:11.244Z,42.72
2022-09-12T15:45:19.919Z,43.00
2022-09-12T15:48:22.669Z,42.58
2022-09-12T15:51:33.475Z,42.60
2022-09-12T15:54:36.301Z,42.79
2022-09-12T15:57:40.448Z,42.67
